Time;durP1;ratioP1;P1;durP2;ratioP2;P2;SDS_P1;SDS_P2;PMS_P1;PMS_P2;Temp;Humidity;BMP_temperature;BMP_pressure;BME280_temperature;BME280_humidity;BME280_pressure;Samples;Min_cycle;Max_cycle;Signal;HPM_P1;HPM_P2
2022/12/15 00:39:58;;;;;;;9.87;6.77;;;;;;;;;;5042333;28;20624;-78
2022/12/15 00:42:27;;;;;;;9.47;6.83;;;;;;;;;;5006901;28;20234;-78
2022/12/15 00:44:58;;;;;;;8.00;5.97;;;;;;;;;;5005986;28;20227;-79
2022/12/15 00:47:26;;;;;;;9.73;6.43;;;;;;;;;;5009232;28;20253;-78
2022/12/15 01:20:18;;;;;;;7.97;5.93;;;;;;;;;;5023364;28;20223;-79
2022/12/15 01:22:53;;;;;;;10.60;7.03;;;;;;;;;;5005636;28;20249;-79
2022/12/15 01:25:27;;;;;;;10.47;6.70;;;;;;;;;;5029454;28;20292;-79
2022/12/15 01:27:55;;;;;;;10.47;7.07;;;;;;;;;;5026296;28;20225;-79
2022/12/15 01:30:25;;;;;;;8.93;6.57;;;;;;;;;;4986299;28;20244;-77
2022/12/15 01:32:55;;;;;;;6.00;5.40;;;;;;;;;;5011357;28;20216;-79
2022/12/15 01:35:23;;;;;;;9.40;6.77;;;;;;;;;;5016835;28;20252;-80
2022/12/15 01:37:48;;;;;;;8.73;6.07;;;;;;;;;;5019852;28;20270;-80
2022/12/15 01:43:02;;;;;;;9.90;6.77;;;;;;;;;;5031826;28;20220;-78
2022/12/15 01:45:29;;;;;;;10.57;7.27;;;;;;;;;;5026255;28;20215;-78
2022/12/15 01:48:04;;;;;;;9.83;7.13;;;;;;;;;;5022586;28;20219;-79
2022/12/15 01:50:30;;;;;;;11.37;7.07;;;;;;;;;;5032993;28;20227;-78
2022/12/15 01:52:56;;;;;;;10.23;6.93;;;;;;;;;;5020338;28;20234;-79
2022/12/15 01:55:23;;;;;;;9.13;7.63;;;;;;;;;;4996315;28;20713;-79
2022/12/15 01:57:58;;;;;;;9.77;7.53;;;;;;;;;;5012975;28;20280;-79
2022/12/15 02:00:26;;;;;;;10.40;6.63;;;;;;;;;;5007310;28;20230;-80
2022/12/15 02:02:57;;;;;;;12.10;7.43;;;;;;;;;;5004675;28;20238;-80
2022/12/15 02:05:23;;;;;;;9.10;6.83;;;;;;;;;;5021315;28;20267;-77
2022/12/15 02:07:56;;;;;;;8.80;6.17;;;;;;;;;;5021760;28;20264;-79
2022/12/15 02:10:25;;;;;;;10.23;7.43;;;;;;;;;;5021562;28;20318;-79
2022/12/15 02:13:18;;;;;;;10.63;7.13;;;;;;;;;;5006159;28;20218;-79
2022/12/15 02:15:53;;;;;;;8.37;6.77;;;;;;;;;;5037260;28;20219;-80
2022/12/15 02:18:26;;;;;;;10.47;8.00;;;;;;;;;;5018256;28;20233;-80
2022/12/15 02:21:00;;;;;;;12.53;7.90;;;;;;;;;;5021277;28;20710;-80
2022/12/15 02:23:37;;;;;;;10.93;7.77;;;;;;;;;;5024070;28;20231;-80
2022/12/15 02:26:26;;;;;;;13.93;8.07;;;;;;;;;;5025701;28;20233;-79
2022/12/15 02:29:23;;;;;;;9.53;7.57;;;;;;;;;;5021271;28;20217;-80
2022/12/15 02:31:55;;;;;;;10.60;7.23;;;;;;;;;;5019200;28;20243;-80
2022/12/15 02:34:46;;;;;;;11.17;7.07;;;;;;;;;;5025176;28;20224;-79
2022/12/15 02:37:21;;;;;;;10.77;6.67;;;;;;;;;;5036605;28;20224;-79
2022/12/15 02:39:49;;;;;;;10.00;7.33;;;;;;;;;;5008175;28;20235;-80
2022/12/15 02:42:19;;;;;;;11.73;7.77;;;;;;;;;;4998189;28;20224;-78
2022/12/15 02:45:00;;;;;;;10.57;7.73;;;;;;;;;;5016633;28;20216;-78
2022/12/15 02:47:44;;;;;;;9.60;7.80;;;;;;;;;;5041911;28;20699;-80
2022/12/15 02:50:10;;;;;;;11.67;7.83;;;;;;;;;;5018418;28;20228;-79
2022/12/15 02:52:51;;;;;;;10.93;8.03;;;;;;;;;;5040704;28;20288;-78
2022/12/15 02:55:23;;;;;;;8.23;7.23;;;;;;;;;;5007151;28;20215;-80
2022/12/15 02:58:12;;;;;;;11.83;7.70;;;;;;;;;;5039937;28;20226;-80
2022/12/15 03:00:40;;;;;;;9.10;6.63;;;;;;;;;;5025129;28;20223;-79
2022/12/15 03:03:07;;;;;;;10.70;7.90;;;;;;;;;;4999038;28;20221;-79
2022/12/15 03:05:33;;;;;;;9.20;7.83;;;;;;;;;;5015015;28;20216;-79
2022/12/15 03:08:03;;;;;;;12.10;7.47;;;;;;;;;;5007556;28;20231;-79
2022/12/15 03:10:29;;;;;;;10.90;7.93;;;;;;;;;;5024612;28;20236;-80
2022/12/15 03:12:59;;;;;;;13.00;7.73;;;;;;;;;;5021650;28;20217;-79
2022/12/15 03:15:25;;;;;;;9.77;7.10;;;;;;;;;;4999331;28;20224;-80
2022/12/15 03:17:53;;;;;;;7.20;6.47;;;;;;;;;;5031986;28;20282;-80
2022/12/15 03:20:18;;;;;;;11.70;8.07;;;;;;;;;;4996998;28;20213;-80
2022/12/15 03:22:44;;;;;;;11.47;9.07;;;;;;;;;;5014689;28;20918;-79
2022/12/15 03:25:14;;;;;;;10.73;8.70;;;;;;;;;;5010809;28;20208;-80
2022/12/15 03:27:40;;;;;;;14.27;9.83;;;;;;;;;;5010381;28;20234;-80
2022/12/15 03:30:08;;;;;;;13.63;7.63;;;;;;;;;;5015060;28;20234;-79
2022/12/15 03:32:36;;;;;;;13.97;9.40;;;;;;;;;;5021757;28;20221;-80
2022/12/15 03:35:02;;;;;;;12.97;7.87;;;;;;;;;;5023334;28;20221;-80
2022/12/15 03:37:28;;;;;;;14.70;9.13;;;;;;;;;;5021479;28;20290;-79
2022/12/15 03:39:58;;;;;;;10.70;7.87;;;;;;;;;;4999138;28;20212;-80
2022/12/15 03:45:10;;;;;;;9.23;7.20;;;;;;;;;;5020202;28;20220;-80
2022/12/15 03:47:40;;;;;;;13.10;9.13;;;;;;;;;;4998494;28;20270;-79
2022/12/15 03:50:13;;;;;;;13.47;8.57;;;;;;;;;;5027939;28;20228;-78
2022/12/15 03:52:39;;;;;;;12.17;8.13;;;;;;;;;;5005447;28;20225;-80
2022/12/15 03:55:10;;;;;;;10.97;7.70;;;;;;;;;;5021203;28;20212;-78
2022/12/15 03:57:38;;;;;;;10.33;7.50;;;;;;;;;;5029424;28;20223;-79
2022/12/15 04:00:13;;;;;;;8.13;7.30;;;;;;;;;;5055370;22;20263;-88
2022/12/15 04:02:42;;;;;;;10.07;7.80;;;;;;;;;;5016697;28;20222;-87
2022/12/15 04:05:24;;;;;;;11.13;7.20;;;;;;;;;;5019764;28;20314;-88
2022/12/15 04:07:50;;;;;;;10.93;7.50;;;;;;;;;;5017570;28;20290;-87
2022/12/15 04:10:18;;;;;;;10.33;7.27;;;;;;;;;;5004217;28;20224;-87
2022/12/15 04:12:46;;;;;;;12.73;7.80;;;;;;;;;;5005567;28;20215;-88
2022/12/15 04:15:12;;;;;;;11.47;7.57;;;;;;;;;;5015141;28;20579;-88
2022/12/15 04:17:44;;;;;;;7.77;6.73;;;;;;;;;;5010183;28;20229;-88
2022/12/15 04:20:17;;;;;;;10.50;7.60;;;;;;;;;;5022827;28;20224;-88
2022/12/15 04:22:44;;;;;;;11.47;7.97;;;;;;;;;;5032980;28;20220;-88
2022/12/15 05:34:10;;;;;;;11.83;8.10;;;;;;;;;;4992431;28;21061;-80
2022/12/15 05:36:37;;;;;;;15.37;8.27;;;;;;;;;;4975993;28;20785;-80
2022/12/15 05:39:04;;;;;;;12.97;8.77;;;;;;;;;;4992077;28;20348;-78
2022/12/15 05:41:35;;;;;;;10.77;7.57;;;;;;;;;;4991210;28;20229;-76
2022/12/15 05:44:04;;;;;;;13.57;9.27;;;;;;;;;;4964088;28;20702;-79
2022/12/15 05:46:32;;;;;;;14.47;8.37;;;;;;;;;;4990974;28;20225;-79
2022/12/15 05:49:01;;;;;;;9.00;8.07;;;;;;;;;;4978880;28;20225;-77
2022/12/15 05:51:27;;;;;;;9.90;8.53;;;;;;;;;;4990596;28;20244;-79
2022/12/15 05:53:56;;;;;;;10.47;8.27;;;;;;;;;;4993201;28;20231;-78
2022/12/15 05:56:27;;;;;;;9.20;7.63;;;;;;;;;;4972033;28;20244;-79
2022/12/15 05:58:56;;;;;;;8.20;7.27;;;;;;;;;;5002408;28;20220;-79
2022/12/15 06:01:22;;;;;;;9.10;7.10;;;;;;;;;;4974031;28;20630;-78
2022/12/15 06:03:49;;;;;;;9.37;7.33;;;;;;;;;;4991985;28;20227;-79
2022/12/15 06:06:15;;;;;;;10.00;7.70;;;;;;;;;;4988152;28;20280;-78
2022/12/15 06:08:41;;;;;;;8.00;6.47;;;;;;;;;;4993939;28;20323;-78
2022/12/15 06:11:10;;;;;;;10.47;8.13;;;;;;;;;;5010828;28;20229;-77
2022/12/15 06:13:36;;;;;;;9.90;7.50;;;;;;;;;;4997625;28;20213;-79
2022/12/15 06:16:04;;;;;;;9.17;7.43;;;;;;;;;;4991367;28;20225;-78
2022/12/15 06:18:38;;;;;;;10.27;7.27;;;;;;;;;;4978388;28;20225;-79
2022/12/15 06:23:42;;;;;;;10.03;7.93;;;;;;;;;;5059204;28;20224;-81
2022/12/15 06:26:30;;;;;;;10.40;7.23;;;;;;;;;;4992438;28;20255;-83
2022/12/15 06:28:57;;;;;;;9.67;7.37;;;;;;;;;;5034147;28;20246;-82
2022/12/15 06:31:26;;;;;;;10.33;7.97;;;;;;;;;;4991108;23;20944;-77
2022/12/15 06:33:54;;;;;;;8.87;7.97;;;;;;;;;;4960271;28;20275;-81
2022/12/15 06:36:22;;;;;;;9.83;7.77;;;;;;;;;;4953947;28;20317;-80
2022/12/15 06:38:52;;;;;;;10.83;7.27;;;;;;;;;;4945885;28;20313;-81
2022/12/15 06:41:22;;;;;;;12.03;8.20;;;;;;;;;;4970084;28;20233;-79
2022/12/15 06:43:52;;;;;;;8.57;7.17;;;;;;;;;;4957611;28;20253;-79
2022/12/15 06:46:19;;;;;;;8.93;7.97;;;;;;;;;;4954844;28;20230;-78
2022/12/15 06:48:48;;;;;;;11.90;7.23;;;;;;;;;;4965044;28;20226;-80
2022/12/15 06:51:20;;;;;;;9.60;7.10;;;;;;;;;;4965615;28;20299;-79
2022/12/15 06:53:47;;;;;;;8.83;7.47;;;;;;;;;;4975511;28;20248;-80
2022/12/15 06:56:21;;;;;;;10.73;8.33;;;;;;;;;;4970776;28;20222;-80
2022/12/15 06:58:48;;;;;;;10.33;7.73;;;;;;;;;;4965650;28;20225;-78
2022/12/15 07:01:14;;;;;;;8.53;7.63;;;;;;;;;;4953811;28;20221;-80
2022/12/15 07:03:43;;;;;;;9.03;7.40;;;;;;;;;;4975879;28;20232;-81
2022/12/15 07:06:13;;;;;;;8.97;6.33;;;;;;;;;;4971914;28;20250;-80
2022/12/15 07:08:43;;;;;;;12.27;7.67;;;;;;;;;;4984495;28;20232;-77
2022/12/15 07:11:11;;;;;;;9.17;7.53;;;;;;;;;;4965785;28;20237;-77
2022/12/15 07:13:37;;;;;;;7.67;6.37;;;;;;;;;;4964729;28;20216;-78
2022/12/15 07:16:04;;;;;;;9.00;7.70;;;;;;;;;;5047425;23;20330;-81
2022/12/15 07:18:30;;;;;;;11.93;7.33;;;;;;;;;;5021174;22;20275;-80
2022/12/15 07:21:04;;;;;;;10.20;7.63;;;;;;;;;;4973168;28;20236;-79
2022/12/15 07:23:30;;;;;;;9.67;7.47;;;;;;;;;;4997830;28;20232;-80
2022/12/15 07:25:56;;;;;;;7.87;6.43;;;;;;;;;;4965178;28;20217;-80
2022/12/15 07:28:25;;;;;;;14.53;7.97;;;;;;;;;;4965731;28;20221;-79
2022/12/15 07:30:54;;;;;;;10.30;6.73;;;;;;;;;;4958210;28;20308;-79
2022/12/15 07:33:24;;;;;;;7.73;6.93;;;;;;;;;;4964740;28;20366;-80
2022/12/15 07:35:54;;;;;;;6.87;5.87;;;;;;;;;;4977990;28;20316;-79
2022/12/15 07:38:23;;;;;;;9.20;6.77;;;;;;;;;;4989724;28;20229;-79
2022/12/15 07:40:49;;;;;;;9.37;6.83;;;;;;;;;;4976949;28;20286;-79
2022/12/15 07:43:16;;;;;;;7.83;6.40;;;;;;;;;;4972320;28;20233;-80
2022/12/15 07:45:51;;;;;;;7.93;6.33;;;;;;;;;;4977800;28;20633;-79
2022/12/15 07:48:18;;;;;;;9.40;7.20;;;;;;;;;;4972396;28;20248;-80
2022/12/15 07:50:45;;;;;;;9.83;7.43;;;;;;;;;;4978392;28;20266;-80
2022/12/15 07:53:11;;;;;;;8.93;7.23;;;;;;;;;;4957516;28;20286;-80
2022/12/15 07:55:38;;;;;;;11.10;7.60;;;;;;;;;;4974944;28;20231;-79
2022/12/15 07:58:04;;;;;;;9.97;7.87;;;;;;;;;;4975166;28;20256;-79
2022/12/15 08:00:34;;;;;;;9.03;7.83;;;;;;;;;;4955136;28;20217;-79
2022/12/15 08:03:01;;;;;;;8.33;7.33;;;;;;;;;;4977850;28;20704;-80
2022/12/15 08:05:28;;;;;;;8.73;7.17;;;;;;;;;;4976368;28;20280;-80
2022/12/15 08:07:59;;;;;;;9.50;7.70;;;;;;;;;;4970403;28;20236;-79
2022/12/15 08:10:30;;;;;;;23.55;16.15;;;;;;;;;;5003425;22;20783;-81
2022/12/15 08:12:57;;;;;;;14.70;8.77;;;;;;;;;;4979432;28;20644;-81
2022/12/15 08:15:23;;;;;;;10.80;8.90;;;;;;;;;;4980502;28;20245;-82
2022/12/15 08:17:48;;;;;;;10.27;8.97;;;;;;;;;;4964883;28;20214;-81
2022/12/15 08:20:14;;;;;;;11.10;9.10;;;;;;;;;;5000157;28;21943;-82
2022/12/15 08:22:40;;;;;;;10.90;9.13;;;;;;;;;;4976648;28;20232;-83
2022/12/15 08:25:08;;;;;;;10.80;8.27;;;;;;;;;;4980341;28;20218;-82
2022/12/15 08:27:36;;;;;;;11.57;7.77;;;;;;;;;;4962595;28;20222;-82
2022/12/15 08:30:04;;;;;;;12.17;8.27;;;;;;;;;;4969244;28;20234;-82
2022/12/15 08:32:30;;;;;;;18.70;15.50;;;;;;;;;;4959823;28;20448;-83
2022/12/15 08:34:55;;;;;;;15.07;10.23;;;;;;;;;;4951581;28;20218;-82
2022/12/15 08:37:23;;;;;;;9.90;8.90;;;;;;;;;;4943532;28;20226;-82
2022/12/15 08:39:51;;;;;;;11.97;8.77;;;;;;;;;;4954446;28;20233;-82
2022/12/15 08:42:16;;;;;;;11.83;9.37;;;;;;;;;;4967105;28;20211;-83
2022/12/15 08:44:42;;;;;;;11.80;9.10;;;;;;;;;;4982281;28;20302;-83
2022/12/15 08:47:12;;;;;;;14.30;10.40;;;;;;;;;;4944556;28;20226;-83
2022/12/15 08:49:40;;;;;;;10.80;9.70;;;;;;;;;;4974291;28;20280;-83
2022/12/15 08:52:05;;;;;;;14.23;10.60;;;;;;;;;;4973322;28;20241;-83
2022/12/15 08:54:33;;;;;;;10.00;9.00;;;;;;;;;;4992875;28;20234;-82
2022/12/15 08:56:59;;;;;;;10.93;9.13;;;;;;;;;;4951628;28;20286;-82
2022/12/15 08:59:27;;;;;;;10.40;8.83;;;;;;;;;;4964271;28;20670;-83
2022/12/15 09:01:52;;;;;;;11.30;9.50;;;;;;;;;;4957945;28;20288;-82
2022/12/15 09:04:20;;;;;;;14.23;9.10;;;;;;;;;;4989682;28;20217;-83
2022/12/15 09:06:48;;;;;;;9.90;8.83;;;;;;;;;;4975815;28;20218;-82
2022/12/15 09:09:14;;;;;;;10.00;8.80;;;;;;;;;;4958621;28;20249;-83
2022/12/15 09:11:42;;;;;;;10.83;9.17;;;;;;;;;;4935586;29;20739;-82
2022/12/15 09:14:10;;;;;;;10.53;9.43;;;;;;;;;;4973556;28;20233;-82
2022/12/15 09:16:36;;;;;;;11.10;9.47;;;;;;;;;;4976687;28;20310;-82
2022/12/15 09:19:02;;;;;;;10.43;9.13;;;;;;;;;;4956098;28;20222;-82
2022/12/15 09:21:28;;;;;;;11.70;9.53;;;;;;;;;;4944606;28;20276;-81
2022/12/15 09:23:56;;;;;;;12.67;10.73;;;;;;;;;;4968077;28;20219;-80
2022/12/15 09:26:22;;;;;;;11.67;10.33;;;;;;;;;;4952647;28;20219;-80
2022/12/15 09:28:51;;;;;;;13.23;11.13;;;;;;;;;;4970468;28;20302;-81
2022/12/15 09:31:29;;;;;;;12.17;10.20;;;;;;;;;;4952553;28;20718;-81
2022/12/15 09:34:01;;;;;;;12.30;10.63;;;;;;;;;;4944596;28;20309;-80
2022/12/15 09:36:31;;;;;;;10.87;9.73;;;;;;;;;;4942259;28;20595;-80
2022/12/15 09:38:57;;;;;;;13.20;10.27;;;;;;;;;;4967300;28;20321;-80
2022/12/15 09:41:27;;;;;;;13.80;9.47;;;;;;;;;;4954514;28;20234;-79
2022/12/15 09:44:15;;;;;;;12.43;9.83;;;;;;;;;;4971600;28;20280;-80
2022/12/15 09:46:40;;;;;;;11.13;10.07;;;;;;;;;;4956914;28;20221;-79
2022/12/15 09:49:43;;;;;;;12.90;11.53;;;;;;;;;;4958109;28;20222;-78
2022/12/15 09:52:13;;;;;;;11.63;9.90;;;;;;;;;;4982989;28;20749;-80
2022/12/15 09:54:40;;;;;;;12.10;10.17;;;;;;;;;;4978859;28;20225;-80
2022/12/15 09:57:15;;;;;;;10.57;9.57;;;;;;;;;;4951209;28;20280;-78
2022/12/15 09:59:46;;;;;;;13.07;10.87;;;;;;;;;;4950327;28;20227;-79
2022/12/15 10:02:30;;;;;;;11.43;9.83;;;;;;;;;;4989109;28;20221;-80
2022/12/15 10:05:12;;;;;;;12.07;10.13;;;;;;;;;;4975284;28;20226;-80
2022/12/15 10:07:42;;;;;;;10.03;9.10;;;;;;;;;;4946794;28;20232;-80
2022/12/15 10:10:25;;;;;;;15.13;10.17;;;;;;;;;;4969578;28;20305;-80
2022/12/15 10:12:52;;;;;;;14.17;10.43;;;;;;;;;;4965333;28;20226;-81
2022/12/15 10:15:25;;;;;;;11.60;10.40;;;;;;;;;;4972211;28;20222;-80
2022/12/15 10:17:56;;;;;;;14.93;13.13;;;;;;;;;;4976437;28;20226;-80
2022/12/15 10:20:25;;;;;;;10.83;9.70;;;;;;;;;;4972351;28;20234;-79
2022/12/15 10:22:56;;;;;;;11.57;10.37;;;;;;;;;;4958422;28;21163;-80
2022/12/15 10:25:28;;;;;;;13.77;9.60;;;;;;;;;;4949929;28;20241;-81
2022/12/15 10:28:16;;;;;;;13.03;9.90;;;;;;;;;;4963314;28;20217;-81
2022/12/15 10:30:43;;;;;;;11.60;9.63;;;;;;;;;;4998607;28;20241;-79
2022/12/15 10:33:19;;;;;;;11.07;9.27;;;;;;;;;;4955104;28;20236;-78
2022/12/15 10:35:45;;;;;;;14.40;10.50;;;;;;;;;;4962681;28;20222;-81
2022/12/15 10:38:37;;;;;;;10.10;9.10;;;;;;;;;;4966144;28;20257;-79
2022/12/15 10:41:13;;;;;;;10.40;9.07;;;;;;;;;;4972835;28;20862;-79
2022/12/15 10:43:42;;;;;;;11.30;10.10;;;;;;;;;;4981612;28;20225;-78
2022/12/15 10:46:14;;;;;;;10.17;9.10;;;;;;;;;;4938218;28;20227;-80
2022/12/15 10:48:46;;;;;;;9.80;8.80;;;;;;;;;;4970410;28;20222;-80
2022/12/15 10:51:12;;;;;;;11.60;9.23;;;;;;;;;;4963078;28;20245;-81
2022/12/15 10:54:11;;;;;;;10.43;9.43;;;;;;;;;;4982498;28;20719;-80
2022/12/15 10:57:00;;;;;;;10.53;9.57;;;;;;;;;;4952198;28;20225;-80
2022/12/15 10:59:40;;;;;;;10.13;8.33;;;;;;;;;;4970961;28;20246;-80
2022/12/15 11:02:20;;;;;;;9.80;8.30;;;;;;;;;;4971189;28;20230;-80
2022/12/15 11:04:56;;;;;;;10.70;9.60;;;;;;;;;;4976180;28;20226;-80
2022/12/15 11:07:22;;;;;;;10.43;9.33;;;;;;;;;;4988616;28;20744;-80
2022/12/15 11:09:57;;;;;;;9.13;8.23;;;;;;;;;;4958100;28;20218;-81
2022/12/15 11:15:30;;;;;;;10.30;9.13;;;;;;;;;;4971109;28;20226;-79
2022/12/15 11:17:58;;;;;;;11.40;9.63;;;;;;;;;;4982183;28;20268;-79
2022/12/15 11:20:29;;;;;;;10.57;8.77;;;;;;;;;;4968789;28;20258;-79
2022/12/15 11:22:57;;;;;;;10.50;8.77;;;;;;;;;;4961967;28;20223;-80
2022/12/15 11:25:28;;;;;;;8.87;8.07;;;;;;;;;;4980210;28;20222;-81
2022/12/15 11:27:55;;;;;;;10.50;8.37;;;;;;;;;;4969692;28;20226;-79
2022/12/15 11:30:24;;;;;;;9.43;8.47;;;;;;;;;;4967345;28;20233;-81
2022/12/15 11:32:54;;;;;;;9.17;8.27;;;;;;;;;;4956384;28;20222;-80
2022/12/15 11:35:26;;;;;;;10.43;8.63;;;;;;;;;;4941852;28;21354;-79
2022/12/15 11:38:11;;;;;;;9.83;8.50;;;;;;;;;;4955679;28;20625;-80
2022/12/15 11:40:41;;;;;;;9.50;8.37;;;;;;;;;;4954259;28;20222;-81
2022/12/15 11:43:27;;;;;;;8.63;7.83;;;;;;;;;;4974381;28;20230;-80
2022/12/15 11:46:02;;;;;;;11.73;8.80;;;;;;;;;;4951698;28;20226;-80
2022/12/15 11:48:44;;;;;;;9.67;8.40;;;;;;;;;;4976891;28;20222;-79
2022/12/15 11:51:12;;;;;;;10.83;8.03;;;;;;;;;;4960214;28;20235;-80
2022/12/15 11:53:54;;;;;;;10.47;9.33;;;;;;;;;;4966870;28;20301;-79
2022/12/15 11:56:34;;;;;;;13.10;10.67;;;;;;;;;;4963389;28;20233;-80
2022/12/15 11:59:07;;;;;;;8.83;8.00;;;;;;;;;;4944756;28;20230;-81
2022/12/15 12:02:00;;;;;;;18.27;8.87;;;;;;;;;;4949548;28;20611;-81
2022/12/15 12:04:50;;;;;;;9.90;8.37;;;;;;;;;;4983826;28;20221;-81
2022/12/15 12:07:50;;;;;;;9.27;8.20;;;;;;;;;;4973450;28;20299;-82
2022/12/15 12:10:30;;;;;;;8.87;7.97;;;;;;;;;;4972532;28;20349;-81
2022/12/15 12:13:10;;;;;;;9.00;7.87;;;;;;;;;;4970616;28;20592;-80
2022/12/15 12:15:36;;;;;;;8.90;8.00;;;;;;;;;;4964346;28;20305;-81
2022/12/15 12:18:24;;;;;;;11.87;8.87;;;;;;;;;;4972764;28;20249;-81
2022/12/15 12:20:57;;;;;;;8.70;7.90;;;;;;;;;;4975700;28;20317;-82
2022/12/15 12:23:25;;;;;;;9.33;7.90;;;;;;;;;;4946381;28;20234;-82
2022/12/15 12:26:19;;;;;;;8.40;7.53;;;;;;;;;;4999732;28;20225;-81
2022/12/15 12:28:51;;;;;;;12.40;9.07;;;;;;;;;;4974471;28;20218;-81
2022/12/15 12:31:40;;;;;;;9.80;8.00;;;;;;;;;;4936025;28;20229;-79
2022/12/15 12:34:13;;;;;;;9.97;8.47;;;;;;;;;;4978054;28;20241;-83
2022/12/15 12:36:40;;;;;;;9.23;8.33;;;;;;;;;;4951946;28;20233;-81
2022/12/15 12:39:09;;;;;;;8.57;7.63;;;;;;;;;;4982167;28;20249;-81
2022/12/15 12:41:56;;;;;;;8.70;7.90;;;;;;;;;;4946317;28;20240;-81
2022/12/15 12:44:36;;;;;;;8.40;7.60;;;;;;;;;;4985343;28;20253;-80
2022/12/15 12:47:28;;;;;;;8.87;7.97;;;;;;;;;;4952453;28;20218;-80
2022/12/15 12:50:05;;;;;;;9.37;8.37;;;;;;;;;;4975600;28;20694;-81
2022/12/15 12:52:37;;;;;;;8.47;7.57;;;;;;;;;;4927665;28;20292;-82
2022/12/15 12:55:25;;;;;;;7.83;7.13;;;;;;;;;;4963736;28;20234;-81
2022/12/15 12:57:56;;;;;;;9.67;8.40;;;;;;;;;;4970335;28;20249;-79
2022/12/15 13:00:28;;;;;;;9.83;8.03;;;;;;;;;;4941211;28;20234;-82
2022/12/15 13:03:22;;;;;;;9.03;8.13;;;;;;;;;;4966694;28;20653;-82
2022/12/15 13:05:53;;;;;;;10.80;7.40;;;;;;;;;;4967539;28;20803;-80
2022/12/15 13:08:48;;;;;;;10.53;9.03;;;;;;;;;;4944436;28;20241;-81
2022/12/15 13:11:52;;;;;;;9.47;8.47;;;;;;;;;;4965932;28;20226;-82
2022/12/15 13:14:23;;;;;;;8.80;7.63;;;;;;;;;;4944612;28;20221;-81
2022/12/15 13:16:50;;;;;;;9.23;8.10;;;;;;;;;;4969885;28;20236;-81
2022/12/15 13:19:16;;;;;;;10.80;8.30;;;;;;;;;;4941448;28;20331;-80
2022/12/15 13:21:47;;;;;;;8.70;7.73;;;;;;;;;;4945082;28;20241;-82
2022/12/15 13:24:36;;;;;;;8.43;6.90;;;;;;;;;;4972605;28;20621;-81
2022/12/15 13:27:08;;;;;;;8.47;7.67;;;;;;;;;;4966636;28;20703;-81
2022/12/15 13:29:34;;;;;;;8.40;7.70;;;;;;;;;;4970371;28;20285;-82
2022/12/15 13:32:03;;;;;;;8.83;8.03;;;;;;;;;;4974462;28;20234;-82
2022/12/15 13:34:34;;;;;;;10.50;9.40;;;;;;;;;;4953153;28;20229;-82
2022/12/15 13:37:00;;;;;;;9.77;8.70;;;;;;;;;;4974509;28;20249;-80
2022/12/15 13:39:30;;;;;;;8.50;7.70;;;;;;;;;;4953159;28;20305;-82
2022/12/15 13:42:02;;;;;;;8.93;7.70;;;;;;;;;;4962958;28;20226;-81
2022/12/15 13:44:34;;;;;;;8.60;7.70;;;;;;;;;;4981875;28;20241;-81
2022/12/15 13:47:17;;;;;;;8.50;7.70;;;;;;;;;;4954872;28;20588;-81
2022/12/15 13:49:47;;;;;;;8.53;7.23;;;;;;;;;;4973388;28;20317;-82
2022/12/15 13:52:43;;;;;;;10.00;8.70;;;;;;;;;;4966164;28;20218;-81
2022/12/15 13:55:17;;;;;;;9.60;7.97;;;;;;;;;;4982964;28;20240;-84
2022/12/15 13:57:54;;;;;;;8.43;7.63;;;;;;;;;;4968949;28;20250;-80
2022/12/15 14:00:20;;;;;;;8.33;7.27;;;;;;;;;;4957389;28;20237;-81
2022/12/15 14:02:45;;;;;;;12.70;8.17;;;;;;;;;;4978578;28;20249;-81
2022/12/15 14:05:17;;;;;;;8.77;7.97;;;;;;;;;;4964408;28;20221;-81
2022/12/15 14:07:50;;;;;;;9.30;8.33;;;;;;;;;;4979925;28;20233;-80
2022/12/15 14:10:23;;;;;;;9.33;8.30;;;;;;;;;;4975209;28;20736;-80
2022/12/15 14:12:51;;;;;;;9.63;8.07;;;;;;;;;;4963739;28;20229;-82
2022/12/15 14:15:26;;;;;;;9.20;8.07;;;;;;;;;;4941658;28;20214;-82
2022/12/15 14:17:55;;;;;;;10.90;8.97;;;;;;;;;;4946140;28;20281;-82
2022/12/15 14:20:29;;;;;;;8.87;7.97;;;;;;;;;;4931415;28;20278;-83
2022/12/15 14:22:59;;;;;;;9.73;8.33;;;;;;;;;;4968272;28;20230;-81
2022/12/15 14:25:28;;;;;;;11.27;8.97;;;;;;;;;;4943676;28;20236;-80
2022/12/15 14:27:54;;;;;;;9.23;8.33;;;;;;;;;;4952207;28;20240;-82
2022/12/15 14:30:25;;;;;;;12.10;9.07;;;;;;;;;;4932204;28;20234;-84
2022/12/15 14:32:56;;;;;;;10.00;8.97;;;;;;;;;;4962014;28;20222;-83
2022/12/15 14:35:24;;;;;;;11.17;8.30;;;;;;;;;;4978236;28;20225;-82
2022/12/15 14:37:51;;;;;;;8.93;8.10;;;;;;;;;;4951038;28;20256;-83
2022/12/15 14:40:16;;;;;;;9.03;8.13;;;;;;;;;;4945854;28;20226;-83
2022/12/15 14:42:44;;;;;;;10.57;8.20;;;;;;;;;;4954626;28;20310;-82
2022/12/15 14:45:19;;;;;;;8.13;7.33;;;;;;;;;;4949194;28;20737;-81
2022/12/15 14:47:59;;;;;;;9.37;8.23;;;;;;;;;;4970120;28;20238;-82
2022/12/15 14:50:25;;;;;;;9.37;8.37;;;;;;;;;;4947467;28;20305;-82
2022/12/15 14:52:58;;;;;;;8.63;7.83;;;;;;;;;;4956327;28;20226;-83
2022/12/15 14:55:34;;;;;;;10.80;8.77;;;;;;;;;;4963473;28;20217;-82
2022/12/15 14:58:21;;;;;;;8.57;7.57;;;;;;;;;;4983367;28;20306;-83
2022/12/15 15:00:51;;;;;;;10.37;7.50;;;;;;;;;;4979517;28;20680;-82
2022/12/15 15:03:35;;;;;;;10.80;8.37;;;;;;;;;;4976450;28;20205;-82
2022/12/15 15:06:10;;;;;;;10.77;8.17;;;;;;;;;;4946297;28;20231;-82
2022/12/15 15:08:51;;;;;;;8.93;7.37;;;;;;;;;;4971086;28;20301;-81
2022/12/15 15:11:38;;;;;;;8.23;7.43;;;;;;;;;;4984481;28;20275;-83
2022/12/15 15:14:07;;;;;;;8.20;7.30;;;;;;;;;;4954492;28;20245;-85
2022/12/15 15:16:34;;;;;;;10.37;9.07;;;;;;;;;;4950462;28;20644;-84
2022/12/15 15:19:00;;;;;;;9.33;8.40;;;;;;;;;;4956511;28;20288;-82
2022/12/15 15:21:29;;;;;;;9.37;8.47;;;;;;;;;;4975232;28;20286;-82
2022/12/15 15:24:21;;;;;;;9.77;8.77;;;;;;;;;;4973743;28;20222;-83
2022/12/15 15:26:49;;;;;;;11.50;9.27;;;;;;;;;;4968566;28;20313;-82
2022/12/15 15:29:40;;;;;;;13.03;9.40;;;;;;;;;;4981169;28;20226;-82
2022/12/15 15:32:15;;;;;;;9.77;8.87;;;;;;;;;;4981739;28;20226;-83
2022/12/15 15:34:42;;;;;;;10.53;8.77;;;;;;;;;;4962447;28;20245;-83
2022/12/15 15:37:19;;;;;;;10.50;8.40;;;;;;;;;;4970119;28;20269;-84
2022/12/15 15:39:47;;;;;;;10.20;8.60;;;;;;;;;;4975233;28;20228;-82
2022/12/15 15:42:12;;;;;;;11.37;8.30;;;;;;;;;;4968983;28;20223;-83
2022/12/15 15:44:39;;;;;;;9.17;8.27;;;;;;;;;;4974380;28;20258;-84
2022/12/15 15:47:04;;;;;;;9.97;8.37;;;;;;;;;;4952382;28;20261;-84
2022/12/15 15:49:30;;;;;;;9.23;7.63;;;;;;;;;;4981630;28;20222;-83
2022/12/15 15:51:55;;;;;;;9.13;7.73;;;;;;;;;;4952512;28;20753;-82
2022/12/15 15:54:24;;;;;;;9.63;8.63;;;;;;;;;;4951523;28;20297;-81
2022/12/15 15:56:52;;;;;;;20.13;8.67;;;;;;;;;;4962184;28;20222;-82
2022/12/15 15:59:20;;;;;;;10.23;8.03;;;;;;;;;;4949984;28;20321;-83
2022/12/15 16:01:53;;;;;;;8.63;7.67;;;;;;;;;;4971324;28;20242;-83
2022/12/15 16:04:21;;;;;;;8.70;7.70;;;;;;;;;;4983197;28;20244;-80
2022/12/15 16:06:46;;;;;;;8.73;7.87;;;;;;;;;;4970585;28;20704;-79
2022/12/15 16:09:13;;;;;;;8.73;7.80;;;;;;;;;;4939221;28;20242;-82
2022/12/15 16:11:39;;;;;;;9.23;8.33;;;;;;;;;;4958943;28;20294;-82
2022/12/15 16:14:11;;;;;;;9.63;7.60;;;;;;;;;;4937216;28;20230;-82
2022/12/15 16:16:37;;;;;;;9.37;7.63;;;;;;;;;;4972696;28;20230;-82
2022/12/15 16:19:07;;;;;;;10.40;8.30;;;;;;;;;;4959739;28;20725;-82
2022/12/15 16:21:35;;;;;;;9.30;8.40;;;;;;;;;;4940052;28;20230;-82
2022/12/15 16:24:09;;;;;;;9.77;7.90;;;;;;;;;;4991993;28;20253;-82
2022/12/15 16:26:37;;;;;;;9.80;8.13;;;;;;;;;;4965227;28;20232;-82
2022/12/15 16:29:15;;;;;;;10.17;8.57;;;;;;;;;;4965247;28;20265;-87
2022/12/15 16:31:44;;;;;;;8.10;7.27;;;;;;;;;;4957870;28;20230;-87
2022/12/15 16:34:15;;;;;;;9.47;8.30;;;;;;;;;;4943938;28;20750;-88
2022/12/15 16:36:40;;;;;;;11.27;8.10;;;;;;;;;;4942908;29;20230;-87
2022/12/15 16:39:25;;;;;;;8.83;7.47;;;;;;;;;;4957585;28;20219;-87
2022/12/15 16:41:52;;;;;;;9.73;8.43;;;;;;;;;;4962565;28;20234;-86
2022/12/15 16:44:17;;;;;;;9.83;8.07;;;;;;;;;;4941280;28;20257;-88
2022/12/15 16:46:45;;;;;;;10.33;8.93;;;;;;;;;;4981585;28;20257;-86
2022/12/15 16:49:16;;;;;;;10.00;8.93;;;;;;;;;;4960795;28;20225;-87
2022/12/15 16:51:49;;;;;;;9.87;8.30;;;;;;;;;;4960918;28;20237;-87
2022/12/15 16:54:40;;;;;;;12.53;9.23;;;;;;;;;;4976449;28;20229;-84
2022/12/15 16:57:10;;;;;;;9.53;8.40;;;;;;;;;;4967690;28;20707;-88
2022/12/15 16:59:36;;;;;;;11.07;9.43;;;;;;;;;;4991963;28;20244;-86
2022/12/15 17:02:24;;;;;;;10.57;9.47;;;;;;;;;;4932185;28;20231;-88
2022/12/15 17:04:50;;;;;;;9.93;8.93;;;;;;;;;;4971597;28;20226;-88
2022/12/15 17:07:16;;;;;;;11.53;9.53;;;;;;;;;;4943309;28;20362;-87
2022/12/15 17:09:41;;;;;;;11.77;9.23;;;;;;;;;;4937311;28;20218;-87
2022/12/15 17:12:13;;;;;;;10.47;9.10;;;;;;;;;;4964542;28;20298;-81
2022/12/15 17:14:41;;;;;;;11.60;10.40;;;;;;;;;;4973369;28;20226;-81
2022/12/15 17:17:15;;;;;;;11.80;10.10;;;;;;;;;;4967220;28;20234;-81
2022/12/15 17:19:43;;;;;;;17.33;13.77;;;;;;;;;;4979548;28;20213;-81
2022/12/15 17:22:12;;;;;;;17.53;14.17;;;;;;;;;;4937015;28;20257;-81
2022/12/15 17:24:42;;;;;;;20.97;16.03;;;;;;;;;;4948995;28;20289;-82
2022/12/15 17:27:18;;;;;;;22.07;18.40;;;;;;;;;;4943163;28;20622;-81
2022/12/15 17:29:44;;;;;;;22.77;16.70;;;;;;;;;;4944402;28;20608;-82